createdAt,value
2022-10-08T00:02:27.402Z,100103.31
2022-10-08T00:05:01.112Z,100099.75
2022-10-08T00:07:29.655Z,100104.44
2022-10-08T00:09:59.511Z,100087.25
2022-10-08T00:12:29.146Z,100081.16
2022-10-08T00:14:56.881Z,100076.16
2022-10-08T00:17:26.734Z,100073.28
2022-10-08T00:19:57.599Z,100070.31
2022-10-08T00:22:25.998Z,100071.97
2022-10-08T00:24:56.623Z,100068.13
2022-10-08T00:27:26.407Z,100075.31
2022-10-08T00:29:54.251Z,100071.50
2022-10-08T00:32:24.197Z,100072.31
2022-10-08T00:34:54.227Z,100084.63
2022-10-08T00:37:25.894Z,100084.34
2022-10-08T00:39:53.622Z,100083.56
2022-10-08T00:42:23.516Z,100081.25
2022-10-08T00:44:56.407Z,100074.22
2022-10-08T00:47:40.941Z,100080.78
2022-10-08T00:50:14.619Z,100080.19
2022-10-08T00:52:50.436Z,100072.56
2022-10-08T00:55:21.274Z,100068.38
2022-10-08T00:57:54.832Z,100069.06
2022-10-08T01:00:25.757Z,100068.94
2022-10-08T01:02:56.047Z,100066.09
2022-10-08T01:05:31.718Z,100069.66
2022-10-08T01:08:12.937Z,100056.56
2022-10-08T01:10:49.297Z,100062.78
2022-10-08T01:13:31.479Z,100058.47
2022-10-08T01:16:12.454Z,100063.13
2022-10-08T01:18:48.193Z,100064.66
2022-10-08T01:21:26.094Z,100059.53
2022-10-08T01:24:16.965Z,100067.91
2022-10-08T01:27:03.827Z,100061.81
2022-10-08T01:29:40.699Z,100057.75
2022-10-08T01:32:16.227Z,100044.63
2022-10-08T01:34:49.233Z,100053.94
2022-10-08T01:37:26.255Z,100052.13
2022-10-08T01:39:59.664Z,100056.09
2022-10-08T01:42:30.058Z,100039.50
2022-10-08T01:45:04.463Z,100051.06
2022-10-08T01:47:34.344Z,100044.00
2022-10-08T01:50:12.790Z,100037.69
2022-10-08T01:52:50.437Z,100042.94
2022-10-08T01:55:25.315Z,100028.84
2022-10-08T01:57:59.350Z,100032.31
2022-10-08T02:00:32.248Z,100044.50
2022-10-08T02:03:00.010Z,100045.47
2022-10-08T02:05:33.168Z,100043.78
2022-10-08T02:08:02.551Z,100045.69
2022-10-08T02:10:30.418Z,100042.25
2022-10-08T02:13:00.404Z,100044.63
2022-10-08T02:15:39.494Z,100036.63
2022-10-08T02:18:13.832Z,100035.41
2022-10-08T02:20:50.507Z,100037.94
2022-10-08T02:23:25.266Z,100041.75
2022-10-08T02:25:59.296Z,100036.25
2022-10-08T02:28:39.425Z,100031.00
2022-10-08T02:31:15.629Z,100030.16
2022-10-08T02:33:47.562Z,100035.19
2022-10-08T02:36:24.093Z,100032.66
2022-10-08T02:38:57.227Z,100023.84
2022-10-08T02:41:30.624Z,100026.25
2022-10-08T02:44:02.590Z,100027.91
2022-10-08T02:46:36.788Z,100039.47
2022-10-08T02:49:10.241Z,100036.22
2022-10-08T02:51:42.587Z,100038.75
2022-10-08T02:54:13.166Z,100030.84
2022-10-08T02:56:47.930Z,100023.06
2022-10-08T02:59:19.876Z,100030.69
2022-10-08T03:01:55.787Z,100030.06
2022-10-08T03:04:30.592Z,100024.97
2022-10-08T03:07:01.372Z,100029.31
2022-10-08T03:09:35.585Z,100025.75
2022-10-08T03:12:06.662Z,100036.47
2022-10-08T03:14:36.600Z,100035.00
2022-10-08T03:17:09.896Z,100021.88
2022-10-08T03:19:39.497Z,100023.78
2022-10-08T03:22:08.725Z,100016.97
2022-10-08T03:24:38.601Z,100027.28
2022-10-08T03:27:08.235Z,100013.53
2022-10-08T03:29:35.977Z,100011.16
2022-10-08T03:32:07.345Z,99994.34
2022-10-08T03:34:36.990Z,99988.03
2022-10-08T03:37:05.256Z,99997.16
2022-10-08T03:39:37.463Z,99996.22
2022-10-08T03:42:05.626Z,99989.75
2022-10-08T03:44:33.389Z,100003.69
2022-10-08T03:47:05.280Z,100012.06
2022-10-08T03:49:34.397Z,100011.84
2022-10-08T03:52:02.171Z,100005.16
2022-10-08T03:54:34.294Z,100005.19
2022-10-08T03:57:02.070Z,99999.19
2022-10-08T03:59:29.835Z,99994.16
2022-10-08T04:01:59.589Z,99998.91
2022-10-08T04:04:27.525Z,99997.66
2022-10-08T04:06:56.718Z,99987.25
2022-10-08T04:09:28.621Z,99988.41
2022-10-08T04:11:56.380Z,99997.13
2022-10-08T04:14:24.134Z,99997.34
2022-10-08T04:16:57.440Z,99993.25
2022-10-08T04:19:25.236Z,99995.50
2022-10-08T04:21:52.969Z,99987.75
2022-10-08T04:24:25.771Z,99990.53
2022-10-08T04:26:55.672Z,99991.31
2022-10-08T04:29:23.420Z,99990.56
2022-10-08T04:31:53.372Z,99980.50
2022-10-08T04:34:23.276Z,99987.63
2022-10-08T04:36:51.017Z,99987.19
2022-10-08T04:39:20.637Z,99982.56
2022-10-08T04:41:51.626Z,99984.06
2022-10-08T04:44:19.430Z,99981.03
2022-10-08T04:46:49.108Z,99987.41
2022-10-08T04:49:19.485Z,99986.69
2022-10-08T04:51:47.241Z,99995.19
2022-10-08T04:54:16.900Z,99986.69
2022-10-08T04:56:46.873Z,99987.41
2022-10-08T04:59:15.974Z,99996.00
2022-10-08T05:01:46.033Z,99990.75
2022-10-08T05:04:16.016Z,99998.09
2022-10-08T05:06:43.793Z,100011.72
2022-10-08T05:09:13.449Z,100003.47
2022-10-08T05:11:43.502Z,99996.94
2022-10-08T05:14:11.510Z,100011.59
2022-10-08T05:16:42.508Z,100005.78
2022-10-08T05:19:12.364Z,100006.53
2022-10-08T05:21:40.151Z,100010.94
2022-10-08T05:24:09.559Z,100009.34
2022-10-08T05:26:58.520Z,100016.81
2022-10-08T05:29:30.324Z,100008.97
2022-10-08T05:32:01.658Z,100013.91
2022-10-08T05:34:29.428Z,100008.16
2022-10-08T05:36:59.046Z,100005.81
2022-10-08T05:39:28.928Z,100015.06
2022-10-08T05:41:56.725Z,100004.88
2022-10-08T05:44:28.550Z,100017.56
2022-10-08T05:46:56.415Z,100020.50
2022-10-08T05:49:25.706Z,100021.34
2022-10-08T05:51:57.481Z,100034.63
2022-10-08T05:54:25.578Z,100045.94
2022-10-08T05:56:53.341Z,100041.97
2022-10-08T05:59:28.369Z,100037.13
2022-10-08T06:01:56.096Z,100044.47
2022-10-08T06:04:27.583Z,100050.97
2022-10-08T06:06:55.511Z,100039.59
2022-10-08T06:09:23.292Z,100035.31
2022-10-08T06:11:53.222Z,100044.78
2022-10-08T06:14:23.598Z,100045.22
2022-10-08T06:16:51.377Z,100050.66
2022-10-08T06:19:21.358Z,100058.69
2022-10-08T06:21:50.661Z,100066.09
2022-10-08T06:24:18.577Z,100067.28
2022-10-08T06:26:48.541Z,100073.34
2022-10-08T06:29:18.361Z,100073.47
2022-10-08T06:31:47.105Z,100085.09
2022-10-08T06:34:15.211Z,100090.47
2022-10-08T06:36:43.132Z,100094.75
2022-10-08T06:39:14.241Z,100091.38
2022-10-08T06:41:42.616Z,100087.81
2022-10-08T06:44:13.674Z,100094.44
2022-10-08T06:46:41.589Z,100096.81
2022-10-08T06:49:11.481Z,100088.88
2022-10-08T06:51:41.144Z,100093.34
2022-10-08T06:54:09.028Z,100089.56
2022-10-08T06:56:40.501Z,100090.06
2022-10-08T06:59:09.229Z,100092.91
2022-10-08T07:01:37.653Z,100090.31
2022-10-08T07:04:07.293Z,100091.50
2022-10-08T07:06:35.633Z,100096.72
2022-10-08T07:09:05.169Z,100097.94
2022-10-08T07:11:35.182Z,100101.09
2022-10-08T07:14:06.584Z,100106.22
2022-10-08T07:16:34.473Z,100101.72
2022-10-08T07:19:04.533Z,100114.00
2022-10-08T07:21:34.531Z,100106.34
2022-10-08T07:24:02.669Z,100100.44
2022-10-08T07:26:34.999Z,100104.72
2022-10-08T07:29:08.626Z,100102.03
2022-10-08T07:31:39.763Z,100102.78
2022-10-08T07:34:09.307Z,100101.91
2022-10-08T07:36:39.585Z,100104.31
2022-10-08T07:39:12.704Z,100106.97
2022-10-08T07:41:41.185Z,100107.88
2022-10-08T07:44:14.741Z,100096.78
2022-10-08T07:46:48.333Z,100097.88
2022-10-08T07:49:17.006Z,100106.00
2022-10-08T07:51:47.068Z,100110.53
2022-10-08T07:54:18.448Z,100112.91
2022-10-08T07:56:46.239Z,100096.91
2022-10-08T07:59:17.624Z,100096.31
2022-10-08T08:01:47.633Z,100092.44
2022-10-08T08:04:15.763Z,100109.47
2022-10-08T08:06:45.379Z,100095.72
2022-10-08T08:09:18.182Z,100101.13
2022-10-08T08:11:47.291Z,100105.94
2022-10-08T08:14:21.635Z,100104.47
2022-10-08T08:16:51.591Z,100110.63
2022-10-08T08:19:19.469Z,100114.19
2022-10-08T08:21:47.340Z,100098.22
2022-10-08T08:24:17.646Z,100117.72
2022-10-08T08:26:45.815Z,100103.56
2022-10-08T08:29:18.514Z,100103.91
2022-10-08T08:31:52.081Z,100107.28
2022-10-08T08:34:24.097Z,100120.91
2022-10-08T08:36:55.063Z,100125.66
2022-10-08T08:39:24.653Z,100115.72
2022-10-08T08:42:12.991Z,100117.41
2022-10-08T08:44:43.862Z,100121.59
2022-10-08T08:47:21.994Z,100126.69
2022-10-08T08:49:54.414Z,100121.28
2022-10-08T08:52:28.529Z,100127.22
2022-10-08T08:54:56.628Z,100114.09
2022-10-08T08:57:37.024Z,100121.63
2022-10-08T09:00:15.090Z,100119.84
2022-10-08T09:02:55.135Z,100127.16
2022-10-08T09:05:25.983Z,100136.00
2022-10-08T09:08:02.554Z,100130.59
2022-10-08T09:10:37.778Z,100123.91
2022-10-08T09:13:16.630Z,100134.97
2022-10-08T09:15:46.920Z,100132.88
2022-10-08T09:18:17.348Z,100132.22
2022-10-08T09:20:47.202Z,100133.84
2022-10-08T09:23:17.489Z,100132.63
2022-10-08T09:25:54.733Z,100139.44
2022-10-08T09:28:40.864Z,100144.69
2022-10-08T09:31:35.554Z,100137.25
2022-10-08T09:34:17.244Z,100130.81
2022-10-08T09:36:49.648Z,100147.66
2022-10-08T09:39:20.126Z,100148.72
2022-10-08T09:42:11.717Z,100146.34
2022-10-08T09:44:41.626Z,100147.28
2022-10-08T09:47:16.930Z,100152.75
2022-10-08T09:49:50.064Z,100153.97
2022-10-08T09:52:25.293Z,100145.50
2022-10-08T09:54:57.864Z,100156.16
2022-10-08T09:57:30.314Z,100147.13
2022-10-08T10:00:00.320Z,100154.06
2022-10-08T10:02:34.472Z,100140.81
2022-10-08T10:05:05.362Z,100159.44
2022-10-08T10:07:46.243Z,100159.00
2022-10-08T10:10:19.853Z,100157.94
2022-10-08T10:12:55.723Z,100161.75
2022-10-08T10:15:27.106Z,100169.88
2022-10-08T10:18:04.087Z,100167.13
2022-10-08T10:20:36.552Z,100172.81
2022-10-08T10:23:14.703Z,100165.75
2022-10-08T10:25:47.564Z,100164.53
2022-10-08T10:28:22.787Z,100175.63
2022-10-08T10:30:58.392Z,100170.03
2022-10-08T10:33:34.340Z,100167.34
2022-10-08T10:36:05.843Z,100168.41
2022-10-08T10:38:43.355Z,100178.88
2022-10-08T10:41:16.444Z,100168.00
2022-10-08T10:43:54.878Z,100170.19
2022-10-08T10:46:32.939Z,100174.06
2022-10-08T10:49:05.984Z,100176.22
2022-10-08T10:51:48.376Z,100186.28
2022-10-08T10:54:31.038Z,100180.34
2022-10-08T10:57:02.882Z,100179.63
2022-10-08T10:59:46.819Z,100175.28
2022-10-08T11:02:24.891Z,100177.22
2022-10-08T11:05:10.431Z,100162.16
2022-10-08T11:08:00.148Z,100174.44
2022-10-08T11:10:41.772Z,100163.03
2022-10-08T11:13:25.200Z,100159.69
2022-10-08T11:16:04.204Z,100163.91
2022-10-08T11:18:40.358Z,100162.09
2022-10-08T11:21:27.112Z,100159.28
2022-10-08T11:24:14.678Z,100160.97
2022-10-08T11:26:51.946Z,100155.38
2022-10-08T11:29:27.752Z,100158.16
2022-10-08T11:31:57.966Z,100175.84
2022-10-08T11:34:30.294Z,100156.69
2022-10-08T11:37:12.805Z,100155.97
2022-10-08T11:39:53.729Z,100161.16
2022-10-08T11:42:28.656Z,100156.25
2022-10-08T11:45:13.654Z,100153.84
2022-10-08T11:47:51.131Z,100150.63
2022-10-08T11:50:32.600Z,100155.66
2022-10-08T11:53:19.743Z,100139.22
2022-10-08T11:55:53.845Z,100139.31
2022-10-08T11:58:28.579Z,100139.78
2022-10-08T12:01:03.227Z,100135.06
2022-10-08T12:03:36.013Z,100137.19
2022-10-08T12:06:17.889Z,100130.38
2022-10-08T12:08:53.290Z,100141.94
2022-10-08T12:11:53.002Z,100146.00
2022-10-08T12:14:31.712Z,100130.84
2022-10-08T12:17:11.639Z,100152.66
2022-10-08T12:20:20.177Z,100147.50
2022-10-08T12:23:05.865Z,100140.84
2022-10-08T12:25:43.077Z,100138.13
2022-10-08T12:28:50.854Z,100134.34
2022-10-08T12:31:47.564Z,100150.50
2022-10-08T12:34:22.793Z,100145.69
2022-10-08T12:37:04.237Z,100145.84
2022-10-08T12:39:37.861Z,100148.28
2022-10-08T12:42:17.456Z,100150.31
2022-10-08T12:44:58.712Z,100156.00
2022-10-08T12:47:39.184Z,100148.81
2022-10-08T12:50:23.413Z,100150.22
2022-10-08T12:52:53.352Z,100159.59
2022-10-08T12:55:24.705Z,100154.09
2022-10-08T12:58:21.129Z,100153.56
2022-10-08T13:00:54.836Z,100167.91
2022-10-08T13:03:24.682Z,100164.13
2022-10-08T13:05:56.584Z,100159.34
2022-10-08T13:08:36.586Z,100164.66
2022-10-08T13:11:10.018Z,100165.53
2022-10-08T13:13:49.473Z,100153.72
2022-10-08T13:16:20.414Z,100152.72
2022-10-08T13:18:50.353Z,100162.69
2022-10-08T13:21:36.835Z,100159.75
2022-10-08T13:24:21.730Z,100150.81
2022-10-08T13:26:53.293Z,100157.88
2022-10-08T13:29:39.767Z,100161.56
2022-10-08T13:32:20.792Z,100164.13
2022-10-08T13:34:53.016Z,100165.59
2022-10-08T13:37:34.891Z,100158.31
2022-10-08T13:40:08.019Z,100169.94
2022-10-08T13:42:44.188Z,100176.34
2022-10-08T13:45:18.298Z,100187.25
2022-10-08T13:47:46.739Z,100175.06
2022-10-08T13:50:15.410Z,100176.13
2022-10-08T13:52:45.590Z,100178.88
2022-10-08T13:55:22.509Z,100176.97
2022-10-08T13:57:50.601Z,100185.13
2022-10-08T14:00:22.609Z,100186.03
2022-10-08T14:05:36.208Z,100180.41
2022-10-08T14:08:08.241Z,100198.09
2022-10-08T14:10:39.844Z,100195.09
2022-10-08T14:13:07.695Z,100193.44
2022-10-08T14:15:39.011Z,100196.78
2022-10-08T14:18:07.266Z,100203.78
2022-10-08T14:20:36.331Z,100208.31
2022-10-08T14:23:04.508Z,100203.50
2022-10-08T14:25:32.660Z,100206.41
2022-10-08T14:28:00.802Z,100211.06
2022-10-08T14:30:31.041Z,100205.91
2022-10-08T14:33:02.249Z,100209.72
2022-10-08T14:35:29.966Z,100210.41
2022-10-08T14:37:57.730Z,100212.91
2022-10-08T14:40:25.723Z,100216.88
2022-10-08T14:42:53.474Z,100223.31
2022-10-08T14:45:36.010Z,100228.81
2022-10-08T14:48:05.314Z,100230.91
2022-10-08T14:50:33.084Z,100228.59
2022-10-08T14:53:05.140Z,100232.88
2022-10-08T14:55:41.023Z,100239.28
2022-10-08T14:58:22.734Z,100247.28
2022-10-08T15:00:53.995Z,100244.31
2022-10-08T15:03:26.915Z,100242.72
2022-10-08T15:05:58.461Z,100254.69
2022-10-08T15:08:26.358Z,100249.41
2022-10-08T15:10:56.110Z,100256.31
2022-10-08T15:13:23.802Z,100258.06
2022-10-08T15:15:53.729Z,100257.56
2022-10-08T15:18:24.875Z,100255.16
2022-10-08T15:20:59.319Z,100254.03
2022-10-08T15:23:28.302Z,100258.13
2022-10-08T15:25:59.225Z,100266.16
2022-10-08T15:28:28.426Z,100263.97
2022-10-08T15:31:03.085Z,100269.13
2022-10-08T15:33:32.537Z,100269.88
2022-10-08T15:36:00.300Z,100268.75
2022-10-08T15:38:29.983Z,100275.25
2022-10-08T15:41:02.910Z,100278.28
2022-10-08T15:43:35.227Z,100276.47
2022-10-08T15:46:11.098Z,100283.34
2022-10-08T15:48:42.878Z,100287.44
2022-10-08T15:51:10.876Z,100281.25
2022-10-08T15:53:39.585Z,100292.09
2022-10-08T15:56:09.416Z,100295.31
2022-10-08T15:58:50.430Z,100296.50
2022-10-08T16:01:23.624Z,100296.06
2022-10-08T16:03:55.719Z,100300.91
2022-10-08T16:06:27.764Z,100309.72
2022-10-08T16:08:58.885Z,100309.91
2022-10-08T16:11:28.801Z,100319.41
2022-10-08T16:14:01.948Z,100326.53
2022-10-08T16:16:32.077Z,100323.19
2022-10-08T16:19:04.281Z,100327.28
2022-10-08T16:21:34.204Z,100324.44
2022-10-08T16:24:03.105Z,100329.66
2022-10-08T16:26:33.769Z,100334.13
2022-10-08T16:29:07.517Z,100330.16
2022-10-08T16:31:35.997Z,100335.06
2022-10-08T16:34:09.235Z,100334.19
2022-10-08T16:36:39.501Z,100338.72
2022-10-08T16:39:08.586Z,100344.94
2022-10-08T16:41:37.813Z,100343.97
2022-10-08T16:44:12.699Z,100347.38
2022-10-08T16:46:44.448Z,100349.94
2022-10-08T16:49:21.298Z,100349.16
2022-10-08T16:51:55.243Z,100363.97
2022-10-08T16:54:25.007Z,100367.72
2022-10-08T16:56:53.225Z,100363.53
2022-10-08T16:59:25.249Z,100368.34
2022-10-08T17:01:58.560Z,100363.66
2022-10-08T17:04:34.966Z,100370.56
2022-10-08T17:07:03.043Z,100374.13
2022-10-08T17:09:33.481Z,100381.31
2022-10-08T17:12:01.516Z,100387.97
2022-10-08T17:14:32.257Z,100387.41
2022-10-08T17:17:02.214Z,100390.94
2022-10-08T17:19:31.507Z,100397.75
2022-10-08T17:22:01.506Z,100399.34
2022-10-08T17:24:29.441Z,100401.31
2022-10-08T17:26:57.244Z,100410.94
2022-10-08T17:29:27.258Z,100408.31
2022-10-08T17:31:55.058Z,100411.13
2022-10-08T17:34:23.009Z,100411.28
2022-10-08T17:36:52.205Z,100422.72
2022-10-08T17:39:21.077Z,100418.53
2022-10-08T17:41:48.822Z,100422.44
2022-10-08T17:44:16.745Z,100425.22
2022-10-08T17:46:46.905Z,100427.06
2022-10-08T17:49:15.364Z,100437.47
2022-10-08T17:51:43.352Z,100436.78
2022-10-08T17:54:14.957Z,100442.44
2022-10-08T17:56:43.134Z,100445.13
2022-10-08T17:59:16.834Z,100449.88
2022-10-08T18:01:47.131Z,100450.88
2022-10-08T18:04:16.809Z,100457.28
2022-10-08T18:06:48.526Z,100453.00
2022-10-08T18:09:19.461Z,100460.41
2022-10-08T18:11:54.000Z,100473.09
2022-10-08T18:14:22.755Z,100452.72
2022-10-08T18:16:52.837Z,100472.75
2022-10-08T18:19:22.905Z,100470.94
2022-10-08T18:21:50.871Z,100471.69
2022-10-08T18:24:22.173Z,100470.25
2022-10-08T18:26:54.177Z,100477.84
2022-10-08T18:29:22.132Z,100473.78
2022-10-08T18:31:49.973Z,100475.38
2022-10-08T18:34:20.452Z,100479.66
2022-10-08T18:36:48.354Z,100487.84
2022-10-08T18:39:18.021Z,100490.63
2022-10-08T18:41:57.287Z,100494.34
2022-10-08T18:44:26.710Z,100494.34
2022-10-08T18:46:59.664Z,100509.47
2022-10-08T18:49:32.225Z,100503.53
2022-10-08T18:52:02.550Z,100513.50
2022-10-08T18:54:30.753Z,100517.19
2022-10-08T18:57:00.497Z,100514.66
2022-10-08T18:59:28.451Z,100519.38
2022-10-08T19:01:59.419Z,100519.81
2022-10-08T19:04:28.124Z,100529.50
2022-10-08T19:06:56.148Z,100537.03
2022-10-08T19:09:24.262Z,100544.34
2022-10-08T19:11:54.609Z,100545.94
2022-10-08T19:14:29.093Z,100546.09
2022-10-08T19:16:59.123Z,100547.16
2022-10-08T19:19:29.762Z,100551.00
2022-10-08T19:22:09.034Z,100559.72
2022-10-08T19:24:40.866Z,100568.16
2022-10-08T19:27:09.397Z,100573.44
2022-10-08T19:29:39.456Z,100574.50
2022-10-08T19:32:07.309Z,100572.25
2022-10-08T19:34:37.514Z,100572.22
2022-10-08T19:37:07.616Z,100582.97
2022-10-08T19:39:35.415Z,100583.00
2022-10-08T19:42:05.958Z,100590.06
2022-10-08T19:44:35.567Z,100592.63
2022-10-08T19:47:04.841Z,100602.16
2022-10-08T19:49:34.946Z,100599.91
2022-10-08T19:52:02.965Z,100610.34
2022-10-08T19:54:30.993Z,100606.03
2022-10-08T19:57:01.206Z,100617.16
2022-10-08T19:59:29.483Z,100616.09
2022-10-08T20:01:57.828Z,100619.47
2022-10-08T20:04:29.533Z,100634.81
2022-10-08T20:06:59.385Z,100623.53
2022-10-08T20:09:27.518Z,100631.25
2022-10-08T20:11:57.620Z,100628.31
2022-10-08T20:14:25.498Z,100633.72
2022-10-08T20:16:53.243Z,100630.81
2022-10-08T20:19:23.436Z,100639.06
2022-10-08T20:21:56.883Z,100636.84
2022-10-08T20:24:26.923Z,100641.00
2022-10-08T20:26:54.701Z,100646.03
2022-10-08T20:29:29.983Z,100651.81
2022-10-08T20:31:59.805Z,100649.13
2022-10-08T20:34:32.966Z,100657.53
2022-10-08T20:37:04.513Z,100654.88
2022-10-08T20:39:32.327Z,100663.19
2022-10-08T20:42:02.458Z,100659.50
2022-10-08T20:44:30.417Z,100668.09
2022-10-08T20:47:00.517Z,100670.81
2022-10-08T20:49:32.565Z,100669.00
2022-10-08T20:52:05.216Z,100668.41
2022-10-08T20:54:35.542Z,100679.66
2022-10-08T20:57:05.685Z,100675.63
2022-10-08T20:59:34.439Z,100682.00
2022-10-08T21:02:05.265Z,100683.22
2022-10-08T21:04:33.225Z,100683.09
2022-10-08T21:07:00.962Z,100686.78
2022-10-08T21:09:31.974Z,100687.81
2022-10-08T21:11:59.818Z,100687.69
2022-10-08T21:14:27.670Z,100691.19
2022-10-08T21:16:55.489Z,100696.31
2022-10-08T21:19:23.460Z,100694.81
2022-10-08T21:21:52.272Z,100700.19
2022-10-08T21:24:22.254Z,100697.38
2022-10-08T21:26:53.258Z,100707.00
2022-10-08T21:29:25.719Z,100707.25
2022-10-08T21:31:53.463Z,100708.69
2022-10-08T21:34:21.288Z,100708.78
2022-10-08T21:36:53.152Z,100720.50
2022-10-08T21:39:20.940Z,100722.16
2022-10-08T21:41:54.947Z,100724.84
2022-10-08T21:44:23.071Z,100725.34
2022-10-08T21:46:50.832Z,100729.91
2022-10-08T21:49:20.669Z,100743.53
2022-10-08T21:51:48.948Z,100732.66
2022-10-08T21:54:17.459Z,100737.44
2022-10-08T21:56:47.628Z,100736.38
2022-10-08T21:59:19.102Z,100744.47
2022-10-08T22:01:50.287Z,100742.06
2022-10-08T22:04:22.329Z,100740.72
2022-10-08T22:06:53.717Z,100750.47
2022-10-08T22:09:26.348Z,100747.94
2022-10-08T22:11:57.336Z,100753.13
2022-10-08T22:14:31.398Z,100750.69
2022-10-08T22:16:59.253Z,100755.66
2022-10-08T22:19:27.138Z,100758.72
2022-10-08T22:21:57.243Z,100753.97
2022-10-08T22:24:27.244Z,100759.47
2022-10-08T22:26:55.025Z,100762.59
2022-10-08T22:29:26.282Z,100771.16
2022-10-08T22:31:56.661Z,100771.53
2022-10-08T22:34:24.426Z,100776.06
2022-10-08T22:36:54.417Z,100775.78
2022-10-08T22:39:24.192Z,100781.25
2022-10-08T22:41:51.962Z,100778.16
2022-10-08T22:44:22.104Z,100786.06
2022-10-08T22:46:51.285Z,100789.03
2022-10-08T22:49:19.047Z,100793.47
2022-10-08T22:51:49.135Z,100796.31
2022-10-08T22:54:19.140Z,100792.34
2022-10-08T22:56:46.874Z,100793.63
2022-10-08T22:59:16.908Z,100795.06
2022-10-08T23:01:46.929Z,100796.22
2022-10-08T23:04:16.084Z,100797.44
2022-10-08T23:06:43.884Z,100793.00
2022-10-08T23:09:15.703Z,100802.47
2022-10-08T23:11:43.465Z,100808.19
2022-10-08T23:14:11.605Z,100816.00
2022-10-08T23:16:44.028Z,100821.25
2022-10-08T23:19:12.666Z,100814.16
2022-10-08T23:21:44.510Z,100818.63
2022-10-08T23:24:14.594Z,100814.44
2022-10-08T23:26:42.336Z,100816.53
2022-10-08T23:29:12.709Z,100835.06
2022-10-08T23:31:42.315Z,100824.25
2022-10-08T23:34:10.511Z,100837.44
2022-10-08T23:36:45.579Z,100838.53
2022-10-08T23:39:15.390Z,100834.06
2022-10-08T23:41:45.418Z,100836.75
2022-10-08T23:44:15.583Z,100840.47
2022-10-08T23:46:43.337Z,100845.16
2022-10-08T23:49:13.369Z,100848.25
2022-10-08T23:51:43.008Z,100851.56
2022-10-08T23:54:12.206Z,100856.28
2022-10-08T23:56:42.203Z,100854.75
2022-10-08T23:59:10.080Z,100860.97
